Time;durP1;ratioP1;P1;durP2;ratioP2;P2;SDS_P1;SDS_P2;PMS_P1;PMS_P2;Temp;Humidity;BMP_temperature;BMP_pressure;BME280_temperature;BME280_humidity;BME280_pressure;Samples;Min_cycle;Max_cycle;Signal;HPM_P1;HPM_P2
2021/01/30 00:00:35;;;;;;;68.22;33.92;;;;;;;-0.23;73.79;98309.31;2148833;82;28818;-71
2021/01/30 00:03:39;;;;;;;61.85;32.53;;;;;;;-0.25;73.73;98314.65;2137108;82;27630;-70
2021/01/30 00:06:50;;;;;;;62.98;32.90;;;;;;;-0.28;73.83;98309.97;2137009;82;33112;-65
2021/01/30 00:09:53;;;;;;;54.83;30.88;;;;;;;-0.29;73.89;98310.88;2167740;82;29165;-72
2021/01/30 00:12:55;;;;;;;52.62;28.42;;;;;;;-0.29;74.11;98306.94;2171489;82;27654;-71
2021/01/30 00:15:57;;;;;;;54.77;30.35;;;;;;;-0.32;73.99;98308.77;2171524;82;28875;-70
2021/01/30 00:18:59;;;;;;;56.70;29.25;;;;;;;-0.35;74.03;98306.72;2171389;82;32091;-72
2021/01/30 00:22:06;;;;;;;59.65;30.25;;;;;;;-0.33;74.22;98300.47;2138995;82;33204;-72
2021/01/30 00:25:10;;;;;;;56.77;30.62;;;;;;;-0.34;74.36;98295.28;2153138;82;29080;-69
2021/01/30 00:28:12;;;;;;;59.83;30.20;;;;;;;-0.31;74.30;98295.14;2171849;82;27653;-70
2021/01/30 00:31:14;;;;;;;59.77;30.55;;;;;;;-0.33;74.41;98289.95;2150383;82;29722;-72
2021/01/30 00:34:19;;;;;;;57.65;28.23;;;;;;;-0.31;74.35;98287.24;2156401;82;31200;-69
2021/01/30 00:37:24;;;;;;;52.78;26.65;;;;;;;-0.34;74.34;98286.07;2171377;81;33118;-64
2021/01/30 00:40:27;;;;;;;54.58;28.80;;;;;;;-0.39;74.51;98286.69;2151753;82;29223;-65
2021/01/30 00:43:29;;;;;;;59.93;30.20;;;;;;;-0.42;74.54;98281.54;2135443;82;27771;-62
2021/01/30 00:46:31;;;;;;;56.35;29.70;;;;;;;-0.45;74.60;98285.16;2133775;83;28962;-69
2021/01/30 00:49:33;;;;;;;56.23;30.85;;;;;;;-0.52;74.66;98283.21;2111284;82;31127;-65
2021/01/30 00:52:36;;;;;;;54.10;27.55;;;;;;;-0.54;74.75;98283.72;2154405;82;33124;-68
2021/01/30 00:55:40;;;;;;;57.00;31.65;;;;;;;-0.56;75.07;98278.97;2121454;82;29182;-69
2021/01/30 00:58:43;;;;;;;52.98;27.13;;;;;;;-0.58;74.95;98275.54;2110401;84;27690;-68
2021/01/30 01:01:46;;;;;;;56.20;31.97;;;;;;;-0.59;75.16;98276.92;2126723;82;28804;-68
2021/01/30 01:04:48;;;;;;;59.95;29.75;;;;;;;-0.63;75.04;98279.66;2111232;84;31140;-70
2021/01/30 01:07:50;;;;;;;57.33;29.02;;;;;;;-0.66;75.07;98274.98;2118175;82;33331;-63
2021/01/30 01:10:52;;;;;;;61.33;30.72;;;;;;;-0.69;75.25;98277.72;2138605;82;30076;-68
2021/01/30 01:13:55;;;;;;;56.63;28.55;;;;;;;-0.67;75.35;98275.42;2154429;82;27727;-69
2021/01/30 01:16:57;;;;;;;58.50;28.27;;;;;;;-0.66;75.46;98268.41;2154725;82;28800;-69
2021/01/30 01:19:59;;;;;;;57.23;29.05;;;;;;;-0.66;75.58;98262.67;2135902;82;31929;-64
2021/01/30 01:23:01;;;;;;;66.02;33.00;;;;;;;-0.70;75.40;98259.75;2111117;84;33663;-70
2021/01/30 01:26:03;;;;;;;60.80;30.37;;;;;;;-0.69;75.56;98252.27;2111169;84;29168;-71
2021/01/30 01:29:05;;;;;;;63.95;31.05;;;;;;;-0.67;75.54;98244.34;2114280;82;27770;-62
2021/01/30 01:32:07;;;;;;;70.42;32.83;;;;;;;-0.65;75.47;98249.05;2132466;82;28809;-70
2021/01/30 01:35:17;;;;;;;62.93;30.92;;;;;;;-0.65;75.54;98244.67;2111481;82;31149;-70
2021/01/30 01:38:19;;;;;;;56.50;28.83;;;;;;;-0.62;75.64;98241.05;2111233;82;33626;-71
2021/01/30 01:41:21;;;;;;;51.75;26.23;;;;;;;-0.58;75.59;98236.56;2140890;82;29158;-71
2021/01/30 01:44:23;;;;;;;51.25;26.27;;;;;;;-0.57;75.55;98229.92;2147631;82;27703;-70
2021/01/30 01:47:39;;;;;;;58.50;26.70;;;;;;;-0.60;75.42;98234.45;2155845;82;28816;-62
2021/01/30 01:50:47;;;;;;;46.37;24.05;;;;;;;-0.60;75.54;98227.88;2149229;82;31593;-62
2021/01/30 01:53:49;;;;;;;40.88;21.50;;;;;;;-0.58;75.60;98226.05;2133746;83;33122;-61
2021/01/30 01:56:56;;;;;;;45.48;24.32;;;;;;;-0.59;75.67;98220.38;2134417;83;29230;-67
2021/01/30 01:59:58;;;;;;;46.20;24.15;;;;;;;-0.57;75.69;98225.09;2147400;82;27595;-69
2021/01/30 02:03:00;;;;;;;43.87;21.07;;;;;;;-0.55;75.62;98215.38;2144894;82;29698;-62
2021/01/30 02:06:03;;;;;;;45.45;21.37;;;;;;;-0.55;75.68;98211.44;2134249;83;31177;-68
2021/01/30 02:09:09;;;;;;;46.73;21.17;;;;;;;-0.61;75.44;98212.53;2136381;82;33161;-69
2021/01/30 02:12:13;;;;;;;46.10;22.95;;;;;;;-0.65;75.48;98212.24;2171363;82;29229;-63
2021/01/30 02:15:17;;;;;;;45.40;22.40;;;;;;;-0.65;75.82;98213.12;2171361;81;28185;-68
2021/01/30 02:19:02;;;;;;;49.65;23.30;;;;;;;-0.65;75.69;98206.98;2171238;82;28802;-69
2021/01/30 02:22:42;;;;;;;48.30;24.90;;;;;;;-0.65;75.75;98198.66;2038683;85;31959;-68
2021/01/30 02:26:00;;;;;;;49.73;25.43;;;;;;;-0.60;75.71;98191.05;2345611;74;36786;-66
2021/01/30 02:29:49;;;;;;;53.65;28.60;;;;;;;-0.68;75.71;98197.45;2303567;77;27634;-63
2021/01/30 02:33:12;;;;;;;65.83;30.92;;;;;;;-0.67;75.87;98189.97;2282871;77;30257;-63
2021/01/30 02:36:35;;;;;;;63.87;33.40;;;;;;;-0.63;75.95;98186.31;2304078;76;31199;-67
2021/01/30 02:40:04;;;;;;;70.25;35.13;;;;;;;-0.59;76.02;98176.52;2303073;77;33537;-66
2021/01/30 02:43:10;;;;;;;80.53;41.95;;;;;;;-0.59;75.93;98169.11;2273559;77;28748;-66
2021/01/30 02:46:19;;;;;;;77.62;40.75;;;;;;;-0.57;76.02;98169.44;2262658;78;27841;-68
2021/01/30 02:49:26;;;;;;;82.75;42.35;;;;;;;-0.54;75.98;98170.64;2266059;77;28808;-70
2021/01/30 02:52:30;;;;;;;88.03;43.42;;;;;;;-0.54;75.79;98169.77;2301578;77;31126;-72
2021/01/30 02:55:33;;;;;;;81.42;44.77;;;;;;;-0.57;75.74;98160.67;2303924;77;33054;-70
2021/01/30 02:58:40;;;;;;;92.00;48.35;;;;;;;-0.58;75.78;98157.20;2304059;77;28841;-69
2021/01/30 03:01:42;;;;;;;85.83;47.23;;;;;;;-0.57;75.83;98153.66;2291264;77;27785;-69
2021/01/30 03:04:44;;;;;;;97.00;51.10;;;;;;;-0.58;75.79;98146.68;2262243;78;29226;-69
2021/01/30 03:08:04;;;;;;;95.80;53.68;;;;;;;-0.58;75.85;98151.09;2262374;78;31134;-61
2021/01/30 03:11:23;;;;;;;101.10;53.15;;;;;;;-0.60;75.87;98150.30;2262876;77;33553;-68
2021/01/30 03:14:27;;;;;;;97.55;50.20;;;;;;;-0.59;75.84;98148.06;2262219;78;28806;-67
2021/01/30 03:17:31;;;;;;;99.25;53.60;;;;;;;-0.62;75.81;98146.39;2262373;78;27751;-69
2021/01/30 03:20:36;;;;;;;102.35;51.95;;;;;;;-0.64;75.77;98145.59;2285574;77;29222;-69
2021/01/30 03:23:37;;;;;;;103.15;52.20;;;;;;;-0.65;75.86;98145.19;2304026;76;30115;-71
2021/01/30 03:26:45;;;;;;;96.97;45.70;;;;;;;-0.70;75.77;98132.23;2304039;77;33159;-70
2021/01/30 03:29:49;;;;;;;89.37;46.50;;;;;;;-0.75;75.85;98135.96;2296298;77;29109;-72
2021/01/30 03:32:51;;;;;;;97.20;49.60;;;;;;;-0.78;75.86;98130.38;2234009;78;27802;-66
2021/01/30 03:35:53;;;;;;;107.60;53.52;;;;;;;-0.82;75.96;98124.83;2287645;77;28803;-69
2021/01/30 03:38:55;;;;;;;90.85;50.38;;;;;;;-0.82;76.00;98125.67;2302973;77;31163;-64
2021/01/30 03:41:57;;;;;;;98.00;51.60;;;;;;;-0.84;76.14;98125.34;2276221;77;33524;-62
2021/01/30 03:44:59;;;;;;;104.15;51.40;;;;;;;-0.86;76.11;98128.48;2302812;77;29888;-64
2021/01/30 03:48:01;;;;;;;104.65;51.63;;;;;;;-0.88;76.25;98119.36;2303313;77;28218;-63
2021/01/30 03:51:03;;;;;;;96.97;52.35;;;;;;;-0.87;76.29;98114.50;2302430;77;29258;-71
2021/01/30 03:54:05;;;;;;;100.97;54.55;;;;;;;-0.83;76.41;98117.86;2303272;77;32496;-68
2021/01/30 03:57:07;;;;;;;112.00;53.70;;;;;;;-0.83;76.33;98104.27;2269402;77;34139;-68
2021/01/30 04:00:14;;;;;;;101.80;50.30;;;;;;;-0.81;76.35;98096.31;2273242;77;28917;-71
2021/01/30 04:03:16;;;;;;;87.05;46.85;;;;;;;-0.81;76.32;98108.14;2269864;77;27590;-72
2021/01/30 04:06:20;;;;;;;98.10;50.10;;;;;;;-0.83;76.28;98100.33;2261593;78;30172;-64
2021/01/30 04:09:22;;;;;;;90.85;49.65;;;;;;;-0.83;76.24;98100.77;2269009;77;31574;-64
2021/01/30 04:12:24;;;;;;;92.72;50.28;;;;;;;-0.89;76.20;98095.74;2261826;77;33623;-62
2021/01/30 04:15:31;;;;;;;86.55;44.25;;;;;;;-0.93;76.25;98104.20;2273842;77;28857;-71
2021/01/30 04:18:33;;;;;;;91.97;45.28;;;;;;;-1.01;76.35;98100.56;2303526;77;27656;-68
2021/01/30 04:21:35;;;;;;;71.70;39.08;;;;;;;-1.04;76.53;98091.95;2302772;77;29769;-73
2021/01/30 04:24:36;;;;;;;86.85;47.55;;;;;;;-1.08;76.72;98092.06;2304264;76;31128;-71
2021/01/30 04:27:38;;;;;;;90.40;49.10;;;;;;;-1.09;76.54;98096.91;2266458;77;34134;-62
2021/01/30 04:30:40;;;;;;;92.00;47.98;;;;;;;-1.11;76.56;98095.27;2266232;78;28834;-64
2021/01/30 04:33:42;;;;;;;92.62;46.73;;;;;;;-1.14;76.57;98107.20;2305612;77;27843;-65
2021/01/30 04:36:43;;;;;;;82.45;42.17;;;;;;;-1.17;76.60;98098.99;2269581;77;28770;-66
2021/01/30 04:39:45;;;;;;;80.83;40.60;;;;;;;-1.17;76.63;98097.67;2266105;78;31200;-71
2021/01/30 04:42:57;;;;;;;259.05;130.25;;;;;;;-1.21;76.67;98089.50;2291737;77;34420;-63
2021/01/30 04:46:19;;;;;;;93.75;48.55;;;;;;;-1.21;76.69;98089.50;2266386;78;30216;-61
2021/01/30 04:49:53;;;;;;;114.60;59.25;;;;;;;-1.25;76.70;98084.83;2267230;77;27658;-68
2021/01/30 04:53:07;;;;;;;96.25;50.40;;;;;;;-1.25;76.67;98075.64;2292289;77;30176;-62
2021/01/30 04:56:20;;;;;;;78.45;42.27;;;;;;;-1.26;76.72;98073.05;2266175;78;32496;-64
2021/01/30 05:00:05;;;;;;;88.95;45.70;;;;;;;-1.27;76.82;98073.96;2291228;77;33548;-63
2021/01/30 05:03:37;;;;;;;83.47;40.08;;;;;;;-1.28;76.85;98084.06;2298102;77;29574;-65
2021/01/30 05:07:05;;;;;;;65.40;33.55;;;;;;;-1.28;76.87;98085.38;2271237;76;27669;-71
2021/01/30 05:10:36;;;;;;;57.67;30.23;;;;;;;-1.31;76.93;98086.80;2238919;78;29215;-67
2021/01/30 05:13:46;;;;;;;43.25;21.15;;;;;;;-1.34;76.88;98099.60;2238088;79;32750;-72
2021/01/30 05:16:59;;;;;;;44.50;23.50;;;;;;;-1.39;76.71;98099.78;2237203;79;34476;-67
2021/01/30 05:20:12;;;;;;;48.67;28.33;;;;;;;-1.38;76.73;98096.24;2305443;76;36832;-64
2021/01/30 05:23:14;;;;;;;46.05;24.23;;;;;;;-1.41;76.74;98099.45;2268763;77;27685;-73
2021/01/30 05:26:24;;;;;;;45.50;22.60;;;;;;;-1.40;76.97;98101.13;2303563;77;28797;-62
2021/01/30 05:30:01;;;;;;;36.55;21.65;;;;;;;-1.40;76.76;98105.07;2278139;77;31096;-61
2021/01/30 05:33:27;;;;;;;38.58;22.30;;;;;;;-1.39;76.77;98106.78;2292399;77;33228;-63
2021/01/30 05:36:42;;;;;;;43.58;22.93;;;;;;;-1.40;76.71;98112.95;2303747;77;29871;-68
2021/01/30 05:40:16;;;;;;;44.67;24.63;;;;;;;-1.44;76.77;98113.52;2302499;77;27650;-65
2021/01/30 05:43:49;;;;;;;50.73;26.48;;;;;;;-1.46;76.84;98110.56;2290447;77;29519;-69
2021/01/30 05:46:52;;;;;;;55.43;30.30;;;;;;;-1.49;76.96;98105.42;2260775;78;32131;-63
2021/01/30 05:50:12;;;;;;;61.20;30.20;;;;;;;-1.55;76.97;98104.72;2291719;77;34010;-70
2021/01/30 05:53:19;;;;;;;57.90;29.42;;;;;;;-1.54;77.02;98102.49;2263476;77;28897;-70
2021/01/30 05:56:21;;;;;;;47.30;27.35;;;;;;;-1.54;76.99;98101.66;2261880;78;27752;-78
2021/01/30 05:59:27;;;;;;;57.98;27.55;;;;;;;-1.59;76.82;98105.77;2284982;77;28800;-62
2021/01/30 06:02:31;;;;;;;46.28;21.95;;;;;;;-1.64;76.90;98106.81;2292363;75;31120;-62
2021/01/30 06:05:41;;;;;;;30.00;16.13;;;;;;;-1.78;76.89;98116.03;2283211;77;33811;-67
2021/01/30 06:09:03;;;;;;;41.23;20.85;;;;;;;-1.78;76.89;98116.03;2275395;77;28916;-62
2021/01/30 06:12:30;;;;;;;36.33;18.92;;;;;;;-1.85;76.95;98123.27;2303358;77;27644;-65
2021/01/30 06:15:36;;;;;;;27.42;15.60;;;;;;;-1.89;76.96;98125.59;2302899;77;28806;-62
2021/01/30 06:18:40;;;;;;;26.80;14.45;;;;;;;-1.91;76.98;98130.06;2302124;77;31180;-71
2021/01/30 06:21:43;;;;;;;23.38;12.43;;;;;;;-1.95;77.01;98136.75;2302495;77;34361;-64
2021/01/30 06:24:46;;;;;;;20.60;11.20;;;;;;;-2.00;76.78;98139.53;2303530;77;28739;-65
2021/01/30 06:27:52;;;;;;;26.02;12.45;;;;;;;-2.04;76.93;98144.48;2303159;77;27677;-75
2021/01/30 06:30:58;;;;;;;32.78;14.63;;;;;;;-2.03;76.97;98144.88;2263371;77;28789;-75
2021/01/30 06:34:26;;;;;;;30.15;14.98;;;;;;;-2.00;76.98;98164.46;2258892;78;31177;-73
2021/01/30 06:37:40;;;;;;;27.32;14.47;;;;;;;-2.01;77.13;98178.05;2261110;78;33120;-76
2021/01/30 06:41:00;;;;;;;36.53;18.37;;;;;;;-2.00;77.01;98175.83;2297572;77;37189;-65
2021/01/30 06:44:27;;;;;;;37.23;16.85;;;;;;;-2.00;77.15;98175.83;2262865;78;27679;-72
2021/01/30 06:47:29;;;;;;;33.40;17.48;;;;;;;-1.97;77.15;98195.85;2193558;80;28954;-73
2021/01/30 06:50:39;;;;;;;37.78;18.12;;;;;;;-1.92;77.23;98198.31;2159172;81;31131;-77
2021/01/30 06:53:41;;;;;;;48.02;23.35;;;;;;;-1.85;77.23;98199.84;2155516;82;33497;-74
2021/01/30 06:56:44;;;;;;;45.92;22.30;;;;;;;-1.83;76.95;98207.22;2150553;81;28610;-75
2021/01/30 07:00:20;;;;;;;40.88;21.05;;;;;;;-1.79;76.93;98218.46;2155783;81;27701;-76
2021/01/30 07:04:11;;;;;;;31.40;17.33;;;;;;;-1.72;76.96;98234.39;2340062;76;36747;-74
2021/01/30 07:07:24;;;;;;;36.03;18.32;;;;;;;-1.73;76.97;98249.30;2269112;77;27656;-74
2021/01/30 07:11:05;;;;;;;42.58;20.37;;;;;;;-1.71;76.86;98263.23;2304026;77;29363;-75
2021/01/30 07:14:39;;;;;;;43.73;21.10;;;;;;;-1.70;76.90;98279.39;2268055;78;31586;-75
2021/01/30 07:18:01;;;;;;;43.68;21.12;;;;;;;-1.69;76.80;98289.42;2210224;78;33697;-68
2021/01/30 07:21:15;;;;;;;39.75;22.40;;;;;;;-1.66;76.78;98277.98;2223436;80;28972;-75
2021/01/30 07:24:22;;;;;;;44.10;24.47;;;;;;;-1.64;76.71;98286.64;2223763;80;27594;-72
2021/01/30 07:27:33;;;;;;;48.45;26.27;;;;;;;-1.65;76.62;98293.67;2223844;80;28830;-76
2021/01/30 07:30:46;;;;;;;55.85;28.17;;;;;;;-1.62;76.64;98302.77;2261718;78;32359;-74
2021/01/30 07:33:52;;;;;;;59.58;29.32;;;;;;;-1.57;76.75;98316.58;2209430;78;33126;-76
2021/01/30 07:37:02;;;;;;;56.45;29.52;;;;;;;-1.50;76.80;98309.83;2231676;78;29972;-75
2021/01/30 07:40:15;;;;;;;65.78;33.58;;;;;;;-1.43;76.90;98316.14;2223704;80;27699;-75
2021/01/30 07:43:25;;;;;;;60.55;33.38;;;;;;;-1.38;76.71;98314.23;2222879;80;30177;-70
2021/01/30 07:46:46;;;;;;;68.80;35.47;;;;;;;-1.25;76.67;98330.45;2342273;76;36823;-70
2021/01/30 07:49:53;;;;;;;72.17;37.35;;;;;;;-1.22;76.60;98343.45;2281886;77;27641;-74
2021/01/30 07:53:18;;;;;;;79.07;39.63;;;;;;;-1.15;76.60;98360.34;2303855;77;29764;-75
2021/01/30 07:56:37;;;;;;;74.35;38.78;;;;;;;-1.09;76.57;98365.40;2302232;77;31087;-72
2021/01/30 07:59:57;;;;;;;70.83;39.67;;;;;;;-1.02;76.54;98378.72;2303424;77;33177;-69
2021/01/30 08:03:33;;;;;;;82.05;42.73;;;;;;;-0.96;76.45;98382.47;2291798;77;29426;-76
2021/01/30 08:07:01;;;;;;;85.47;44.77;;;;;;;-0.93;76.46;98381.49;2303634;77;27721;-70
2021/01/30 08:10:09;;;;;;;87.20;44.85;;;;;;;-0.86;76.37;98391.34;2176456;81;28811;-62
2021/01/30 08:13:40;;;;;;;107.37;54.80;;;;;;;-0.79;76.41;98404.22;2174441;81;31233;-62
2021/01/30 08:17:00;;;;;;;106.63;55.05;;;;;;;-0.72;76.25;98416.70;2175725;81;32495;-66
2021/01/30 08:20:12;;;;;;;116.90;59.18;;;;;;;-0.65;76.26;98422.16;2166340;81;28710;-70
2021/01/30 08:23:39;;;;;;;113.15;60.95;;;;;;;-0.58;76.24;98427.22;2173118;81;27778;-65
2021/01/30 08:26:57;;;;;;;121.75;64.53;;;;;;;-0.52;76.13;98433.56;2176392;81;27791;-66
2021/01/30 08:30:05;;;;;;;116.42;61.00;;;;;;;-0.47;76.03;98448.27;2176485;81;31343;-69
2021/01/30 08:33:21;;;;;;;113.87;60.87;;;;;;;-0.40;75.70;98455.96;2251100;77;37089;-62
2021/01/30 08:36:42;;;;;;;;;;;;;;;-0.44;75.40;98464.42;2194562;80;27653;-74
2021/01/30 08:40:12;;;;;;;116.17;61.08;;;;;;;-0.41;75.48;98466.92;2178812;81;28880;-71
2021/01/30 08:43:47;;;;;;;115.60;60.10;;;;;;;-0.38;75.42;98470.77;2201659;80;31219;-63
2021/01/30 08:46:56;;;;;;;113.35;60.50;;;;;;;-0.32;75.11;98484.16;2217768;80;33235;-71
2021/01/30 08:50:12;;;;;;;116.22;62.05;;;;;;;-0.28;75.28;98487.57;2191866;80;28862;-68
2021/01/30 08:53:26;;;;;;;112.80;61.42;;;;;;;-0.25;75.09;98494.05;2208837;80;27642;-67
2021/01/30 08:56:50;;;;;;;112.22;59.25;;;;;;;-0.21;75.10;98507.48;2217640;80;28798;-73
2021/01/30 08:59:53;;;;;;;109.42;59.18;;;;;;;-0.17;75.05;98515.67;2217404;80;32458;-64
2021/01/30 09:02:59;;;;;;;108.83;61.75;;;;;;;-0.14;74.84;98518.65;2192562;80;33065;-73
2021/01/30 09:06:07;;;;;;;116.65;64.97;;;;;;;-0.10;74.90;98526.41;2217614;80;28854;-70
2021/01/30 09:09:25;;;;;;;102.58;58.28;;;;;;;-0.06;74.97;98535.89;2217068;80;27683;-67
2021/01/30 09:12:57;;;;;;;107.58;57.33;;;;;;;0.01;74.80;98539.16;2179097;80;29963;-68
2021/01/30 09:16:00;;;;;;;114.90;59.30;;;;;;;0.04;74.58;98549.59;2178107;81;32073;-75
2021/01/30 09:19:06;;;;;;;100.87;58.17;;;;;;;0.04;74.72;98554.86;2178695;81;33081;-71
2021/01/30 09:22:28;;;;;;;99.85;55.35;;;;;;;0.07;74.63;98560.02;2164728;80;29055;-63
2021/01/30 09:25:58;;;;;;;100.60;55.25;;;;;;;0.03;74.17;98562.83;2187279;80;27711;-69
2021/01/30 09:29:03;;;;;;;96.92;56.05;;;;;;;0.00;74.30;98562.48;2208045;80;28819;-62
2021/01/30 09:32:11;;;;;;;96.00;55.13;;;;;;;0.05;74.23;98584.22;2194749;80;30963;-63
2021/01/30 09:35:24;;;;;;;92.40;51.30;;;;;;;0.07;74.36;98588.98;2183329;80;33085;-62
2021/01/30 09:38:34;;;;;;;91.30;49.93;;;;;;;0.13;74.47;98590.54;2186041;80;28965;-64
2021/01/30 09:41:37;;;;;;;98.90;54.83;;;;;;;0.17;74.45;98602.70;2216526;80;27615;-62
2021/01/30 09:44:39;;;;;;;90.07;52.83;;;;;;;0.26;74.43;98602.36;2216513;80;30263;-68
2021/01/30 09:47:48;;;;;;;100.55;55.30;;;;;;;0.35;74.20;98601.17;2199718;80;31647;-62
2021/01/30 09:50:57;;;;;;;89.10;51.33;;;;;;;0.44;74.25;98603.50;2178369;80;34444;-67
2021/01/30 09:54:00;;;;;;;81.78;46.98;;;;;;;0.51;73.94;98608.09;2114131;82;28857;-63
2021/01/30 09:57:19;;;;;;;82.30;47.65;;;;;;;0.55;73.74;98616.73;2146984;82;27787;-67
2021/01/30 10:00:38;;;;;;;83.00;46.73;;;;;;;0.61;73.76;98612.57;2147988;82;28837;-70
2021/01/30 10:03:42;;;;;;;78.50;45.35;;;;;;;0.69;73.54;98608.34;2146263;82;32113;-62
2021/01/30 10:06:47;;;;;;;79.60;45.83;;;;;;;0.78;73.48;98609.30;2146517;82;33059;-62
2021/01/30 10:09:50;;;;;;;73.30;42.23;;;;;;;0.85;73.71;98616.52;2111458;84;28894;-70
2021/01/30 10:12:54;;;;;;;70.12;42.10;;;;;;;0.94;73.30;98622.78;2135470;82;27692;-68
2021/01/30 10:15:57;;;;;;;78.00;47.15;;;;;;;1.01;73.37;98621.62;2147807;82;28838;-66
2021/01/30 10:19:13;;;;;;;75.28;44.77;;;;;;;1.10;73.23;98623.05;2111523;84;31212;-62
2021/01/30 10:22:24;;;;;;;81.40;48.28;;;;;;;1.17;73.12;98632.45;2111132;82;33204;-72
2021/01/30 10:25:27;;;;;;;68.75;42.15;;;;;;;1.25;72.99;98629.97;2111581;84;29218;-68
2021/01/30 10:28:54;;;;;;;67.65;41.53;;;;;;;1.33;72.89;98637.98;2111605;84;27602;-66
2021/01/30 10:32:04;;;;;;;;;;;;;;;1.43;72.89;98646.88;2138403;81;28916;-73
2021/01/30 10:35:15;;;;;;;66.57;38.90;;;;;;;1.50;72.53;98645.26;2146727;81;31299;-63
2021/01/30 10:38:26;;;;;;;67.50;38.50;;;;;;;1.52;72.24;98653.10;2146527;82;33203;-65
2021/01/30 10:41:29;;;;;;;65.08;38.73;;;;;;;1.58;72.25;98659.47;2129683;81;29521;-72
2021/01/30 10:44:31;;;;;;;66.95;39.30;;;;;;;1.62;72.30;98667.67;2184422;81;28242;-73
2021/01/30 10:47:34;;;;;;;66.62;40.23;;;;;;;1.66;72.09;98675.00;2184457;81;28836;-72
2021/01/30 10:50:39;;;;;;;60.63;38.17;;;;;;;1.70;72.00;98678.38;2158683;81;32137;-62
2021/01/30 10:53:42;;;;;;;59.75;37.48;;;;;;;1.78;71.96;98688.18;2182768;81;33127;-62
2021/01/30 10:56:50;;;;;;;65.10;38.13;;;;;;;1.83;71.95;98683.55;2184359;81;29836;-76
2021/01/30 10:59:57;;;;;;;62.33;38.75;;;;;;;1.79;71.73;98695.19;2158518;81;27665;-72
2021/01/30 11:03:04;;;;;;;66.05;40.08;;;;;;;1.75;71.36;98696.22;2159987;81;30245;-63
2021/01/30 11:06:21;;;;;;;64.32;37.25;;;;;;;1.73;71.70;98700.70;2152361;81;31359;-67
2021/01/30 11:09:33;;;;;;;59.45;37.63;;;;;;;1.70;71.68;98704.33;2121621;82;32884;-62
2021/01/30 11:12:35;;;;;;;63.30;36.98;;;;;;;1.69;71.36;98709.20;2167964;81;29800;-63
2021/01/30 11:15:41;;;;;;;65.85;39.42;;;;;;;1.66;71.43;98708.00;2160455;81;27654;-63
2021/01/30 11:18:48;;;;;;;68.75;41.98;;;;;;;1.65;71.45;98708.91;2175593;81;28815;-77
2021/01/30 11:22:24;;;;;;;76.15;43.83;;;;;;;1.60;71.33;98709.10;2146263;82;32045;-78
2021/01/30 11:25:31;;;;;;;75.45;45.43;;;;;;;1.58;71.31;98714.89;2147118;82;34528;-62
2021/01/30 11:28:36;;;;;;;71.20;40.60;;;;;;;1.59;71.48;98713.10;2152978;81;28855;-71
2021/01/30 11:31:39;;;;;;;60.65;36.48;;;;;;;1.58;71.22;98716.66;2174440;81;27808;-65
2021/01/30 11:34:42;;;;;;;63.23;38.92;;;;;;;1.56;71.13;98718.05;2148141;81;28817;-70
2021/01/30 11:37:45;;;;;;;62.38;38.25;;;;;;;1.57;71.25;98725.52;2121715;82;32131;-73
2021/01/30 11:40:50;;;;;;;64.67;39.55;;;;;;;1.57;71.34;98729.48;2180043;80;33119;-74
2021/01/30 11:43:57;;;;;;;73.70;41.42;;;;;;;1.63;71.39;98732.74;2184497;81;29817;-67
2021/01/30 11:46:59;;;;;;;55.28;33.25;;;;;;;1.70;71.46;98736.00;2184389;81;27670;-62
2021/01/30 11:50:02;;;;;;;57.00;33.60;;;;;;;1.77;71.05;98739.27;2160565;81;28824;-65
2021/01/30 11:53:14;;;;;;;58.40;35.52;;;;;;;1.76;71.00;98744.14;2146596;81;31151;-69
2021/01/30 11:56:18;;;;;;;57.55;32.25;;;;;;;1.79;71.14;98755.44;2166744;81;33113;-69
2021/01/30 11:59:20;;;;;;;56.75;34.40;;;;;;;1.76;71.03;98752.06;2183444;81;29602;-68
2021/01/30 12:02:36;;;;;;;60.80;33.13;;;;;;;1.79;71.19;98748.83;2139804;82;27954;-75
2021/01/30 12:05:38;;;;;;;60.98;34.15;;;;;;;1.85;71.05;98756.97;2144732;82;28725;-66
2021/01/30 12:08:41;;;;;;;58.15;34.33;;;;;;;1.90;71.19;98768.70;2154990;81;31146;-66
2021/01/30 12:11:43;;;;;;;60.88;33.25;;;;;;;1.94;71.02;98767.19;2184205;81;33184;-65
2021/01/30 12:14:46;;;;;;;54.90;33.78;;;;;;;1.95;70.79;98778.60;2184805;81;29106;-75
2021/01/30 12:17:50;;;;;;;56.10;31.60;;;;;;;1.88;71.02;98778.45;2183865;81;27754;-70
2021/01/30 12:20:53;;;;;;;57.78;30.80;;;;;;;1.80;70.85;98782.23;2153424;81;29717;-72
2021/01/30 12:23:56;;;;;;;57.83;32.42;;;;;;;1.75;70.85;98779.38;2146760;82;31139;-66
2021/01/30 12:26:58;;;;;;;49.40;29.48;;;;;;;1.72;70.93;98772.89;2179147;80;33130;-72
2021/01/30 12:30:01;;;;;;;42.85;27.07;;;;;;;1.70;71.13;98777.36;2184355;80;28861;-63
2021/01/30 12:33:05;;;;;;;39.20;25.12;;;;;;;1.67;71.08;98774.39;2156453;81;27743;-72
2021/01/30 12:36:09;;;;;;;41.15;23.67;;;;;;;1.61;70.92;98775.94;2146902;82;28829;-72
2021/01/30 12:39:11;;;;;;;38.75;23.30;;;;;;;1.58;71.05;98780.00;2147549;81;32152;-61
2021/01/30 12:42:14;;;;;;;32.78;19.48;;;;;;;1.59;70.91;98773.36;2146812;82;34066;-61
2021/01/30 12:45:17;;;;;;;38.78;23.60;;;;;;;1.63;70.81;98771.02;2157730;81;28951;-64
2021/01/30 12:48:20;;;;;;;33.50;19.95;;;;;;;1.64;70.84;98770.09;2184478;81;27659;-62
2021/01/30 12:51:23;;;;;;;26.42;17.62;;;;;;;1.65;70.46;98772.27;2148864;81;29239;-75
2021/01/30 12:54:25;;;;;;;29.65;17.27;;;;;;;1.66;70.71;98776.16;2146818;82;31144;-71
2021/01/30 12:57:28;;;;;;;25.32;16.42;;;;;;;1.66;70.14;98776.16;2146902;82;33124;-69
2021/01/30 13:00:31;;;;;;;23.30;16.00;;;;;;;1.65;70.40;98789.42;2163562;81;28875;-72
2021/01/30 13:03:33;;;;;;;22.20;14.10;;;;;;;1.67;70.37;98798.15;2180612;81;27706;-73
2021/01/30 13:06:36;;;;;;;21.90;15.08;;;;;;;1.64;69.87;98812.34;2184404;80;28910;-75
2021/01/30 13:09:39;;;;;;;26.75;16.02;;;;;;;1.63;70.01;98806.65;2169484;81;31130;-79
2021/01/30 13:12:41;;;;;;;23.02;15.23;;;;;;;1.64;70.12;98812.78;2184229;81;33566;-65
2021/01/30 13:15:44;;;;;;;17.90;12.80;;;;;;;1.66;70.16;98824.98;2183979;81;29315;-62
2021/01/30 13:18:47;;;;;;;20.52;12.93;;;;;;;1.67;69.90;98820.59;2174968;81;27810;-63
2021/01/30 13:21:50;;;;;;;21.05;13.30;;;;;;;1.70;70.01;98828.40;2160345;81;29366;-61
2021/01/30 13:24:54;;;;;;;19.45;12.63;;;;;;;1.70;69.88;98831.03;2147070;82;27599;-63
2021/01/30 13:27:56;;;;;;;21.80;13.60;;;;;;;1.63;69.25;98833.05;2162416;81;33134;-76
2021/01/30 13:31:01;;;;;;;22.37;14.45;;;;;;;1.56;69.05;98835.50;2171718;81;28889;-62
2021/01/30 13:34:03;;;;;;;22.95;13.60;;;;;;;1.47;69.32;98840.65;2124534;82;27699;-63
2021/01/30 13:37:06;;;;;;;21.55;13.72;;;;;;;1.40;69.14;98835.64;2111362;84;28768;-67
2021/01/30 13:40:11;;;;;;;26.75;15.45;;;;;;;1.32;69.66;98842.52;2116779;82;31182;-76
2021/01/30 13:43:14;;;;;;;25.80;16.20;;;;;;;1.28;70.06;98847.48;2119391;82;33144;-75
2021/01/30 13:46:16;;;;;;;30.60;17.95;;;;;;;1.24;70.32;98842.79;2111672;84;28933;-69
2021/01/30 13:49:18;;;;;;;27.35;17.45;;;;;;;1.25;70.54;98846.27;2111807;84;28165;-66
2021/01/30 13:52:21;;;;;;;24.95;16.90;;;;;;;1.23;70.70;98852.09;2134975;82;28900;-62
2021/01/30 13:55:23;;;;;;;31.70;18.00;;;;;;;1.22;70.73;98855.16;2147662;82;30947;-70
2021/01/30 13:58:25;;;;;;;26.27;17.90;;;;;;;1.20;70.90;98851.72;2148073;82;33193;-76
2021/01/30 14:01:28;;;;;;;26.68;17.62;;;;;;;1.18;70.55;98858.81;2145766;82;29168;-74
2021/01/30 14:04:30;;;;;;;34.63;20.85;;;;;;;1.15;70.48;98861.59;2147799;82;27775;-61
2021/01/30 14:07:32;;;;;;;44.00;23.45;;;;;;;1.12;70.80;98863.00;2138558;82;28824;-74
2021/01/30 14:10:36;;;;;;;46.28;24.82;;;;;;;1.12;70.75;98874.88;2091933;84;31227;-64
2021/01/30 14:13:41;;;;;;;56.37;26.82;;;;;;;1.14;70.93;98871.26;2125125;82;33132;-77
2021/01/30 14:16:43;;;;;;;;;;;;;;;1.14;70.80;98878.33;2157417;82;29254;-61
2021/01/30 14:19:45;;;;;;;57.43;30.30;;;;;;;1.14;70.97;98879.17;2155203;81;27691;-64
2021/01/30 14:22:48;;;;;;;61.40;30.82;;;;;;;1.13;70.96;98884.04;2154059;80;28839;-60
2021/01/30 14:25:53;;;;;;;52.13;29.55;;;;;;;1.11;70.94;98885.02;2137355;82;31029;-61
2021/01/30 14:28:57;;;;;;;39.88;23.85;;;;;;;1.09;71.09;98886.37;2148416;82;33626;-73
2021/01/30 14:32:03;;;;;;;43.50;25.27;;;;;;;1.06;70.95;98888.66;2133152;81;30128;-71